sensor_id;sensor_type;location;lat;lon;timestamp;P1;durP1;ratioP1;P2;durP2;ratioP2
53959;SDS011;39866;48.638;-2.020;2023-02-28T00:00:18;13.65;;;7.05;;
53959;SDS011;39866;48.638;-2.020;2023-02-28T00:02:45;14.20;;;7.18;;
53959;SDS011;39866;48.638;-2.020;2023-02-28T00:05:11;12.68;;;7.95;;
53959;SDS011;39866;48.638;-2.020;2023-02-28T00:07:40;11.82;;;7.38;;
53959;SDS011;39866;48.638;-2.020;2023-02-28T00:10:08;10.48;;;6.75;;
53959;SDS011;39866;48.638;-2.020;2023-02-28T00:12:37;13.95;;;8.45;;
53959;SDS011;39866;48.638;-2.020;2023-02-28T00:15:09;13.07;;;8.13;;
53959;SDS011;39866;48.638;-2.020;2023-02-28T00:17:35;12.98;;;8.10;;
53959;SDS011;39866;48.638;-2.020;2023-02-28T00:20:02;16.92;;;8.32;;
53959;SDS011;39866;48.638;-2.020;2023-02-28T00:22:29;12.77;;;7.95;;
53959;SDS011;39866;48.638;-2.020;2023-02-28T00:24:55;12.20;;;8.77;;
53959;SDS011;39866;48.638;-2.020;2023-02-28T00:27:20;14.30;;;7.70;;
53959;SDS011;39866;48.638;-2.020;2023-02-28T00:29:48;12.75;;;8.27;;
53959;SDS011;39866;48.638;-2.020;2023-02-28T00:32:14;20.63;;;9.27;;
53959;SDS011;39866;48.638;-2.020;2023-02-28T00:34:39;13.27;;;8.18;;
53959;SDS011;39866;48.638;-2.020;2023-02-28T00:37:08;11.85;;;7.72;;
53959;SDS011;39866;48.638;-2.020;2023-02-28T00:39:35;12.57;;;8.63;;
53959;SDS011;39866;48.638;-2.020;2023-02-28T00:42:01;13.18;;;8.52;;
53959;SDS011;39866;48.638;-2.020;2023-02-28T00:44:28;10.35;;;7.93;;
53959;SDS011;39866;48.638;-2.020;2023-02-28T00:46:54;15.27;;;8.95;;
53959;SDS011;39866;48.638;-2.020;2023-02-28T00:49:20;12.95;;;8.13;;
53959;SDS011;39866;48.638;-2.020;2023-02-28T00:51:46;13.50;;;9.05;;
53959;SDS011;39866;48.638;-2.020;2023-02-28T00:54:11;13.98;;;8.45;;
53959;SDS011;39866;48.638;-2.020;2023-02-28T00:56:37;11.38;;;8.57;;
53959;SDS011;39866;48.638;-2.020;2023-02-28T00:59:03;13.15;;;9.02;;
53959;SDS011;39866;48.638;-2.020;2023-02-28T01:01:28;13.32;;;8.65;;
53959;SDS011;39866;48.638;-2.020;2023-02-28T01:03:53;13.18;;;8.60;;
53959;SDS011;39866;48.638;-2.020;2023-02-28T01:06:18;16.05;;;8.80;;
53959;SDS011;39866;48.638;-2.020;2023-02-28T01:08:44;12.23;;;8.32;;
53959;SDS011;39866;48.638;-2.020;2023-02-28T01:11:10;12.18;;;9.00;;
53959;SDS011;39866;48.638;-2.020;2023-02-28T01:13:36;14.68;;;9.25;;
53959;SDS011;39866;48.638;-2.020;2023-02-28T01:16:02;12.40;;;9.50;;
53959;SDS011;39866;48.638;-2.020;2023-02-28T01:18:27;14.25;;;9.48;;
53959;SDS011;39866;48.638;-2.020;2023-02-28T01:20:53;14.93;;;10.05;;
53959;SDS011;39866;48.638;-2.020;2023-02-28T01:23:19;11.85;;;9.40;;
53959;SDS011;39866;48.638;-2.020;2023-02-28T01:25:46;10.57;;;9.43;;
53959;SDS011;39866;48.638;-2.020;2023-02-28T01:28:11;13.07;;;9.18;;
53959;SDS011;39866;48.638;-2.020;2023-02-28T01:30:37;14.25;;;10.05;;
53959;SDS011;39866;48.638;-2.020;2023-02-28T01:33:02;12.93;;;9.18;;
53959;SDS011;39866;48.638;-2.020;2023-02-28T01:35:27;12.63;;;9.48;;
53959;SDS011;39866;48.638;-2.020;2023-02-28T01:37:53;13.00;;;9.15;;
53959;SDS011;39866;48.638;-2.020;2023-02-28T01:40:18;14.20;;;9.43;;
53959;SDS011;39866;48.638;-2.020;2023-02-28T01:42:44;11.73;;;8.55;;
53959;SDS011;39866;48.638;-2.020;2023-02-28T01:48:06;10.77;;;8.90;;
53959;SDS011;39866;48.638;-2.020;2023-02-28T01:50:34;11.88;;;9.48;;
53959;SDS011;39866;48.638;-2.020;2023-02-28T01:53:04;9.98;;;7.93;;
53959;SDS011;39866;48.638;-2.020;2023-02-28T01:55:35;12.15;;;8.93;;
53959;SDS011;39866;48.638;-2.020;2023-02-28T01:58:02;9.98;;;8.52;;
53959;SDS011;39866;48.638;-2.020;2023-02-28T02:00:30;11.65;;;8.50;;
53959;SDS011;39866;48.638;-2.020;2023-02-28T02:03:00;10.80;;;8.13;;
53959;SDS011;39866;48.638;-2.020;2023-02-28T02:05:31;10.85;;;8.55;;
53959;SDS011;39866;48.638;-2.020;2023-02-28T02:07:57;11.10;;;8.48;;
53959;SDS011;39866;48.638;-2.020;2023-02-28T02:13:12;11.73;;;8.38;;
53959;SDS011;39866;48.638;-2.020;2023-02-28T02:40:57;9.80;;;8.02;;
53959;SDS011;39866;48.638;-2.020;2023-02-28T02:43:30;8.70;;;7.80;;
53959;SDS011;39866;48.638;-2.020;2023-02-28T02:46:05;10.30;;;8.27;;
53959;SDS011;39866;48.638;-2.020;2023-02-28T02:48:36;11.07;;;8.02;;
53959;SDS011;39866;48.638;-2.020;2023-02-28T02:51:06;12.77;;;8.45;;
53959;SDS011;39866;48.638;-2.020;2023-02-28T02:53:39;9.98;;;8.30;;
53959;SDS011;39866;48.638;-2.020;2023-02-28T02:58:38;9.52;;;7.55;;
53959;SDS011;39866;48.638;-2.020;2023-02-28T03:01:07;10.07;;;8.45;;
53959;SDS011;39866;48.638;-2.020;2023-02-28T03:03:37;10.20;;;7.88;;
53959;SDS011;39866;48.638;-2.020;2023-02-28T03:06:02;9.57;;;7.43;;
53959;SDS011;39866;48.638;-2.020;2023-02-28T03:08:29;14.82;;;8.20;;
53959;SDS011;39866;48.638;-2.020;2023-02-28T03:11:02;11.73;;;7.70;;
53959;SDS011;39866;48.638;-2.020;2023-02-28T03:21:34;9.27;;;7.95;;
53959;SDS011;39866;48.638;-2.020;2023-02-28T03:24:21;12.20;;;8.65;;
53959;SDS011;39866;48.638;-2.020;2023-02-28T03:27:03;9.25;;;8.25;;
53959;SDS011;39866;48.638;-2.020;2023-02-28T03:29:44;10.23;;;8.10;;
53959;SDS011;39866;48.638;-2.020;2023-02-28T03:32:19;9.65;;;8.63;;
53959;SDS011;39866;48.638;-2.020;2023-02-28T03:34:51;11.00;;;8.95;;
53959;SDS011;39866;48.638;-2.020;2023-02-28T03:37:28;10.63;;;9.52;;
53959;SDS011;39866;48.638;-2.020;2023-02-28T03:39:57;10.13;;;9.13;;
53959;SDS011;39866;48.638;-2.020;2023-02-28T03:42:28;11.32;;;10.13;;
53959;SDS011;39866;48.638;-2.020;2023-02-28T03:44:57;11.02;;;9.85;;
53959;SDS011;39866;48.638;-2.020;2023-02-28T03:49:54;11.82;;;10.57;;
53959;SDS011;39866;48.638;-2.020;2023-02-28T03:52:28;13.52;;;11.00;;
53959;SDS011;39866;48.638;-2.020;2023-02-28T03:55:00;12.85;;;10.73;;
53959;SDS011;39866;48.638;-2.020;2023-02-28T04:00:40;19.05;;;11.48;;
53959;SDS011;39866;48.638;-2.020;2023-02-28T04:03:10;12.95;;;11.65;;
53959;SDS011;39866;48.638;-2.020;2023-02-28T04:05:44;13.23;;;11.43;;
53959;SDS011;39866;48.638;-2.020;2023-02-28T04:08:21;11.38;;;10.35;;
53959;SDS011;39866;48.638;-2.020;2023-02-28T04:10:52;13.55;;;12.15;;
53959;SDS011;39866;48.638;-2.020;2023-02-28T04:13:23;13.48;;;11.07;;
53959;SDS011;39866;48.638;-2.020;2023-02-28T04:15:48;14.23;;;11.98;;
53959;SDS011;39866;48.638;-2.020;2023-02-28T04:18:14;14.32;;;12.65;;
53959;SDS011;39866;48.638;-2.020;2023-02-28T04:20:39;13.90;;;12.50;;
53959;SDS011;39866;48.638;-2.020;2023-02-28T04:23:04;14.98;;;13.50;;
53959;SDS011;39866;48.638;-2.020;2023-02-28T04:25:30;16.33;;;12.77;;
53959;SDS011;39866;48.638;-2.020;2023-02-28T04:27:55;15.40;;;13.20;;
53959;SDS011;39866;48.638;-2.020;2023-02-28T04:30:20;14.90;;;13.60;;
53959;SDS011;39866;48.638;-2.020;2023-02-28T04:32:46;16.50;;;13.60;;
53959;SDS011;39866;48.638;-2.020;2023-02-28T04:35:11;15.18;;;13.57;;
53959;SDS011;39866;48.638;-2.020;2023-02-28T04:37:36;19.42;;;14.50;;
53959;SDS011;39866;48.638;-2.020;2023-02-28T04:40:02;15.57;;;14.02;;
53959;SDS011;39866;48.638;-2.020;2023-02-28T04:42:28;18.15;;;14.55;;
53959;SDS011;39866;48.638;-2.020;2023-02-28T04:45:00;17.60;;;14.77;;
53959;SDS011;39866;48.638;-2.020;2023-02-28T04:47:26;16.42;;;14.13;;
53959;SDS011;39866;48.638;-2.020;2023-02-28T04:49:51;15.60;;;13.80;;
53959;SDS011;39866;48.638;-2.020;2023-02-28T04:52:16;15.43;;;13.82;;
53959;SDS011;39866;48.638;-2.020;2023-02-28T04:54:42;15.13;;;13.57;;
53959;SDS011;39866;48.638;-2.020;2023-02-28T04:57:07;15.95;;;14.27;;
53959;SDS011;39866;48.638;-2.020;2023-02-28T04:59:32;16.27;;;14.65;;
53959;SDS011;39866;48.638;-2.020;2023-02-28T05:01:58;19.48;;;14.23;;
53959;SDS011;39866;48.638;-2.020;2023-02-28T05:04:23;14.60;;;13.10;;
53959;SDS011;39866;48.638;-2.020;2023-02-28T05:06:49;15.95;;;13.85;;
53959;SDS011;39866;48.638;-2.020;2023-02-28T05:09:14;15.25;;;13.65;;
53959;SDS011;39866;48.638;-2.020;2023-02-28T05:11:41;15.25;;;13.75;;
53959;SDS011;39866;48.638;-2.020;2023-02-28T05:14:09;16.50;;;14.60;;
53959;SDS011;39866;48.638;-2.020;2023-02-28T05:16:37;16.20;;;14.50;;
53959;SDS011;39866;48.638;-2.020;2023-02-28T05:19:03;16.42;;;14.02;;
53959;SDS011;39866;48.638;-2.020;2023-02-28T05:21:29;16.80;;;14.75;;
53959;SDS011;39866;48.638;-2.020;2023-02-28T05:24:06;16.33;;;14.60;;
53959;SDS011;39866;48.638;-2.020;2023-02-28T05:26:36;16.73;;;15.02;;
53959;SDS011;39866;48.638;-2.020;2023-02-28T05:29:03;16.77;;;13.95;;
53959;SDS011;39866;48.638;-2.020;2023-02-28T05:31:28;17.25;;;15.45;;
53959;SDS011;39866;48.638;-2.020;2023-02-28T05:33:54;17.70;;;15.85;;
53959;SDS011;39866;48.638;-2.020;2023-02-28T05:36:20;16.70;;;14.98;;
53959;SDS011;39866;48.638;-2.020;2023-02-28T05:38:49;17.08;;;14.82;;
53959;SDS011;39866;48.638;-2.020;2023-02-28T05:41:16;17.65;;;15.43;;
53959;SDS011;39866;48.638;-2.020;2023-02-28T05:43:42;20.15;;;15.43;;
53959;SDS011;39866;48.638;-2.020;2023-02-28T05:46:08;17.70;;;15.90;;
53959;SDS011;39866;48.638;-2.020;2023-02-28T05:48:35;22.83;;;15.68;;
53959;SDS011;39866;48.638;-2.020;2023-02-28T05:51:01;18.08;;;16.27;;
53959;SDS011;39866;48.638;-2.020;2023-02-28T05:53:27;18.73;;;15.88;;
53959;SDS011;39866;48.638;-2.020;2023-02-28T05:55:53;17.05;;;15.23;;
53959;SDS011;39866;48.638;-2.020;2023-02-28T05:58:18;19.00;;;15.38;;
53959;SDS011;39866;48.638;-2.020;2023-02-28T06:00:44;20.33;;;16.35;;
53959;SDS011;39866;48.638;-2.020;2023-02-28T06:03:10;19.73;;;16.17;;
53959;SDS011;39866;48.638;-2.020;2023-02-28T06:05:35;17.27;;;15.30;;
53959;SDS011;39866;48.638;-2.020;2023-02-28T06:08:00;18.40;;;16.08;;
53959;SDS011;39866;48.638;-2.020;2023-02-28T06:10:26;18.60;;;16.63;;
53959;SDS011;39866;48.638;-2.020;2023-02-28T06:12:51;17.63;;;15.80;;
53959;SDS011;39866;48.638;-2.020;2023-02-28T06:15:16;17.17;;;15.38;;
53959;SDS011;39866;48.638;-2.020;2023-02-28T06:17:42;19.67;;;15.98;;
53959;SDS011;39866;48.638;-2.020;2023-02-28T06:20:09;19.30;;;16.80;;
53959;SDS011;39866;48.638;-2.020;2023-02-28T06:22:37;17.92;;;16.13;;
53959;SDS011;39866;48.638;-2.020;2023-02-28T06:25:04;18.73;;;16.83;;
53959;SDS011;39866;48.638;-2.020;2023-02-28T06:27:31;19.38;;;17.27;;
53959;SDS011;39866;48.638;-2.020;2023-02-28T06:29:57;19.10;;;16.60;;
53959;SDS011;39866;48.638;-2.020;2023-02-28T06:32:22;18.35;;;16.55;;
53959;SDS011;39866;48.638;-2.020;2023-02-28T06:34:47;18.80;;;16.77;;
53959;SDS011;39866;48.638;-2.020;2023-02-28T06:37:13;19.30;;;17.20;;
53959;SDS011;39866;48.638;-2.020;2023-02-28T06:39:39;20.95;;;17.67;;
53959;SDS011;39866;48.638;-2.020;2023-02-28T06:42:04;20.00;;;17.40;;
53959;SDS011;39866;48.638;-2.020;2023-02-28T06:44:30;19.95;;;17.73;;
53959;SDS011;39866;48.638;-2.020;2023-02-28T06:47:00;23.52;;;20.63;;
53959;SDS011;39866;48.638;-2.020;2023-02-28T06:49:30;21.05;;;18.48;;
53959;SDS011;39866;48.638;-2.020;2023-02-28T06:51:56;26.67;;;17.83;;
53959;SDS011;39866;48.638;-2.020;2023-02-28T06:54:21;19.38;;;16.95;;
53959;SDS011;39866;48.638;-2.020;2023-02-28T06:56:46;18.90;;;16.85;;
53959;SDS011;39866;48.638;-2.020;2023-02-28T06:59:12;21.27;;;17.77;;
53959;SDS011;39866;48.638;-2.020;2023-02-28T07:01:38;19.52;;;17.50;;
53959;SDS011;39866;48.638;-2.020;2023-02-28T07:04:04;21.17;;;17.65;;
53959;SDS011;39866;48.638;-2.020;2023-02-28T07:06:30;18.38;;;16.42;;
53959;SDS011;39866;48.638;-2.020;2023-02-28T07:08:56;19.88;;;16.75;;
53959;SDS011;39866;48.638;-2.020;2023-02-28T07:11:22;20.35;;;17.20;;
53959;SDS011;39866;48.638;-2.020;2023-02-28T07:13:50;20.77;;;17.27;;
53959;SDS011;39866;48.638;-2.020;2023-02-28T07:16:16;19.15;;;17.25;;
53959;SDS011;39866;48.638;-2.020;2023-02-28T07:18:42;20.38;;;16.60;;
53959;SDS011;39866;48.638;-2.020;2023-02-28T07:21:08;20.23;;;17.15;;
53959;SDS011;39866;48.638;-2.020;2023-02-28T07:23:35;21.05;;;17.40;;
53959;SDS011;39866;48.638;-2.020;2023-02-28T07:26:02;20.92;;;17.17;;
53959;SDS011;39866;48.638;-2.020;2023-02-28T07:28:29;21.50;;;17.15;;
53959;SDS011;39866;48.638;-2.020;2023-02-28T07:30:54;21.48;;;17.08;;
53959;SDS011;39866;48.638;-2.020;2023-02-28T07:33:19;22.58;;;16.92;;
53959;SDS011;39866;48.638;-2.020;2023-02-28T07:35:45;21.73;;;17.63;;
53959;SDS011;39866;48.638;-2.020;2023-02-28T07:38:10;22.73;;;18.05;;
53959;SDS011;39866;48.638;-2.020;2023-02-28T07:40:36;20.67;;;17.88;;
53959;SDS011;39866;48.638;-2.020;2023-02-28T07:43:02;24.42;;;17.55;;
53959;SDS011;39866;48.638;-2.020;2023-02-28T07:45:28;31.45;;;18.55;;
53959;SDS011;39866;48.638;-2.020;2023-02-28T07:47:54;22.48;;;17.17;;
53959;SDS011;39866;48.638;-2.020;2023-02-28T07:50:20;22.25;;;17.95;;
53959;SDS011;39866;48.638;-2.020;2023-02-28T07:52:46;20.33;;;17.50;;
53959;SDS011;39866;48.638;-2.020;2023-02-28T07:55:11;20.85;;;17.50;;
53959;SDS011;39866;48.638;-2.020;2023-02-28T07:57:38;21.40;;;17.63;;
53959;SDS011;39866;48.638;-2.020;2023-02-28T08:00:05;22.63;;;17.67;;
53959;SDS011;39866;48.638;-2.020;2023-02-28T08:02:32;20.98;;;17.50;;
53959;SDS011;39866;48.638;-2.020;2023-02-28T08:04:57;19.48;;;16.95;;
53959;SDS011;39866;48.638;-2.020;2023-02-28T08:07:23;22.58;;;17.17;;
53959;SDS011;39866;48.638;-2.020;2023-02-28T08:09:48;20.55;;;17.05;;
53959;SDS011;39866;48.638;-2.020;2023-02-28T08:12:14;22.45;;;16.63;;
53959;SDS011;39866;48.638;-2.020;2023-02-28T08:14:39;21.33;;;17.50;;
53959;SDS011;39866;48.638;-2.020;2023-02-28T08:17:05;19.33;;;16.45;;
53959;SDS011;39866;48.638;-2.020;2023-02-28T08:19:31;24.08;;;17.45;;
53959;SDS011;39866;48.638;-2.020;2023-02-28T08:21:57;20.23;;;16.38;;
53959;SDS011;39866;48.638;-2.020;2023-02-28T08:24:22;21.98;;;16.63;;
53959;SDS011;39866;48.638;-2.020;2023-02-28T08:26:48;22.80;;;18.35;;
53959;SDS011;39866;48.638;-2.020;2023-02-28T08:29:13;18.85;;;16.80;;
53959;SDS011;39866;48.638;-2.020;2023-02-28T08:31:38;19.60;;;17.30;;
53959;SDS011;39866;48.638;-2.020;2023-02-28T08:34:05;19.75;;;15.93;;
53959;SDS011;39866;48.638;-2.020;2023-02-28T08:36:35;21.08;;;17.02;;
53959;SDS011;39866;48.638;-2.020;2023-02-28T08:39:01;23.13;;;16.65;;
53959;SDS011;39866;48.638;-2.020;2023-02-28T08:41:26;19.08;;;16.88;;
53959;SDS011;39866;48.638;-2.020;2023-02-28T08:43:52;23.33;;;17.98;;
53959;SDS011;39866;48.638;-2.020;2023-02-28T08:46:18;26.85;;;18.10;;
53959;SDS011;39866;48.638;-2.020;2023-02-28T08:48:44;23.88;;;17.58;;
53959;SDS011;39866;48.638;-2.020;2023-02-28T08:51:11;23.40;;;17.60;;
53959;SDS011;39866;48.638;-2.020;2023-02-28T08:53:44;22.27;;;18.17;;
53959;SDS011;39866;48.638;-2.020;2023-02-28T08:56:12;20.65;;;17.02;;
53959;SDS011;39866;48.638;-2.020;2023-02-28T08:58:39;24.15;;;17.35;;
53959;SDS011;39866;48.638;-2.020;2023-02-28T09:01:12;23.10;;;18.20;;
53959;SDS011;39866;48.638;-2.020;2023-02-28T09:03:39;23.80;;;18.17;;
53959;SDS011;39866;48.638;-2.020;2023-02-28T09:06:06;27.02;;;17.42;;
53959;SDS011;39866;48.638;-2.020;2023-02-28T09:08:32;37.45;;;18.00;;
53959;SDS011;39866;48.638;-2.020;2023-02-28T09:10:58;23.40;;;17.83;;
53959;SDS011;39866;48.638;-2.020;2023-02-28T09:13:24;21.77;;;16.95;;
53959;SDS011;39866;48.638;-2.020;2023-02-28T09:15:51;21.15;;;17.98;;
53959;SDS011;39866;48.638;-2.020;2023-02-28T09:18:17;22.85;;;17.15;;
53959;SDS011;39866;48.638;-2.020;2023-02-28T09:20:43;29.08;;;18.20;;
53959;SDS011;39866;48.638;-2.020;2023-02-28T09:23:09;27.17;;;17.70;;
53959;SDS011;39866;48.638;-2.020;2023-02-28T09:25:35;25.52;;;18.10;;
53959;SDS011;39866;48.638;-2.020;2023-02-28T09:28:01;30.23;;;18.05;;
53959;SDS011;39866;48.638;-2.020;2023-02-28T09:30:27;43.42;;;19.58;;
53959;SDS011;39866;48.638;-2.020;2023-02-28T09:32:53;25.55;;;18.52;;
53959;SDS011;39866;48.638;-2.020;2023-02-28T09:35:19;26.30;;;18.13;;
53959;SDS011;39866;48.638;-2.020;2023-02-28T09:37:49;26.05;;;18.25;;
53959;SDS011;39866;48.638;-2.020;2023-02-28T09:40:17;23.42;;;17.38;;
53959;SDS011;39866;48.638;-2.020;2023-02-28T09:42:45;22.42;;;17.95;;
53959;SDS011;39866;48.638;-2.020;2023-02-28T09:48:10;22.90;;;17.25;;
53959;SDS011;39866;48.638;-2.020;2023-02-28T09:50:48;25.60;;;17.35;;
53959;SDS011;39866;48.638;-2.020;2023-02-28T09:53:25;23.98;;;16.85;;
53959;SDS011;39866;48.638;-2.020;2023-02-28T09:55:58;21.67;;;15.80;;
53959;SDS011;39866;48.638;-2.020;2023-02-28T10:06:48;19.25;;;16.27;;
53959;SDS011;39866;48.638;-2.020;2023-02-28T10:09:24;20.83;;;16.15;;
53959;SDS011;39866;48.638;-2.020;2023-02-28T10:11:56;21.67;;;16.17;;
53959;SDS011;39866;48.638;-2.020;2023-02-28T10:14:26;20.08;;;15.57;;
53959;SDS011;39866;48.638;-2.020;2023-02-28T10:17:04;20.85;;;16.15;;
53959;SDS011;39866;48.638;-2.020;2023-02-28T10:19:40;19.35;;;15.98;;
53959;SDS011;39866;48.638;-2.020;2023-02-28T10:25:01;24.30;;;15.10;;
53959;SDS011;39866;48.638;-2.020;2023-02-28T10:27:31;25.25;;;16.35;;
53959;SDS011;39866;48.638;-2.020;2023-02-28T10:29:58;17.58;;;13.80;;
53959;SDS011;39866;48.638;-2.020;2023-02-28T10:32:33;21.58;;;15.13;;
53959;SDS011;39866;48.638;-2.020;2023-02-28T10:35:09;20.65;;;15.07;;
53959;SDS011;39866;48.638;-2.020;2023-02-28T10:37:40;20.25;;;15.35;;
53959;SDS011;39866;48.638;-2.020;2023-02-28T10:40:26;18.45;;;15.15;;
53959;SDS011;39866;48.638;-2.020;2023-02-28T10:45:22;18.77;;;15.38;;
53959;SDS011;39866;48.638;-2.020;2023-02-28T10:47:56;19.70;;;15.63;;
53959;SDS011;39866;48.638;-2.020;2023-02-28T10:50:27;22.73;;;16.45;;
53959;SDS011;39866;48.638;-2.020;2023-02-28T10:53:04;20.70;;;15.15;;
53959;SDS011;39866;48.638;-2.020;2023-02-28T10:55:39;21.00;;;17.08;;
53959;SDS011;39866;48.638;-2.020;2023-02-28T10:58:16;21.15;;;16.38;;
53959;SDS011;39866;48.638;-2.020;2023-02-28T11:00:46;21.63;;;16.83;;
53959;SDS011;39866;48.638;-2.020;2023-02-28T11:03:25;23.90;;;17.52;;
53959;SDS011;39866;48.638;-2.020;2023-02-28T11:05:58;27.05;;;18.27;;
53959;SDS011;39866;48.638;-2.020;2023-02-28T11:08:43;23.35;;;19.00;;
53959;SDS011;39866;48.638;-2.020;2023-02-28T11:11:11;21.58;;;16.23;;
53959;SDS011;39866;48.638;-2.020;2023-02-28T11:13:36;24.17;;;16.60;;
53959;SDS011;39866;48.638;-2.020;2023-02-28T11:16:10;19.35;;;15.82;;
53959;SDS011;39866;48.638;-2.020;2023-02-28T11:21:05;21.33;;;14.75;;
53959;SDS011;39866;48.638;-2.020;2023-02-28T11:23:32;16.75;;;14.13;;
53959;SDS011;39866;48.638;-2.020;2023-02-28T11:26:01;20.17;;;14.90;;
53959;SDS011;39866;48.638;-2.020;2023-02-28T11:28:34;21.45;;;14.10;;
53959;SDS011;39866;48.638;-2.020;2023-02-28T11:31:05;20.75;;;15.48;;
53959;SDS011;39866;48.638;-2.020;2023-02-28T11:36:29;15.13;;;13.52;;
53959;SDS011;39866;48.638;-2.020;2023-02-28T11:38:58;17.55;;;13.85;;
53959;SDS011;39866;48.638;-2.020;2023-02-28T11:53:19;20.73;;;15.75;;
53959;SDS011;39866;48.638;-2.020;2023-02-28T12:07:19;22.75;;;15.93;;
53959;SDS011;39866;48.638;-2.020;2023-02-28T12:09:53;18.60;;;14.73;;
53959;SDS011;39866;48.638;-2.020;2023-02-28T12:21:20;19.50;;;14.13;;
53959;SDS011;39866;48.638;-2.020;2023-02-28T12:26:48;20.40;;;14.25;;
53959;SDS011;39866;48.638;-2.020;2023-02-28T12:29:38;17.30;;;14.70;;
53959;SDS011;39866;48.638;-2.020;2023-02-28T12:32:41;20.92;;;14.60;;
53959;SDS011;39866;48.638;-2.020;2023-02-28T12:37:45;22.92;;;15.63;;
53959;SDS011;39866;48.638;-2.020;2023-02-28T12:40:18;23.77;;;15.95;;
53959;SDS011;39866;48.638;-2.020;2023-02-28T12:42:47;25.65;;;15.95;;
53959;SDS011;39866;48.638;-2.020;2023-02-28T12:46:03;25.02;;;14.82;;
53959;SDS011;39866;48.638;-2.020;2023-02-28T12:48:39;20.42;;;16.05;;
53959;SDS011;39866;48.638;-2.020;2023-02-28T12:51:24;21.13;;;15.13;;
53959;SDS011;39866;48.638;-2.020;2023-02-28T13:00:00;16.48;;;13.25;;
53959;SDS011;39866;48.638;-2.020;2023-02-28T13:10:53;14.40;;;12.13;;
53959;SDS011;39866;48.638;-2.020;2023-02-28T13:13:28;15.57;;;10.15;;
53959;SDS011;39866;48.638;-2.020;2023-02-28T13:16:09;16.92;;;10.00;;
53959;SDS011;39866;48.638;-2.020;2023-02-28T13:18:39;13.43;;;9.10;;
53959;SDS011;39866;48.638;-2.020;2023-02-28T13:21:08;19.90;;;10.48;;
53959;SDS011;39866;48.638;-2.020;2023-02-28T13:26:23;16.80;;;9.25;;
53959;SDS011;39866;48.638;-2.020;2023-02-28T13:34:30;13.25;;;9.38;;
53959;SDS011;39866;48.638;-2.020;2023-02-28T13:42:35;14.82;;;9.60;;
53959;SDS011;39866;48.638;-2.020;2023-02-28T13:47:41;25.50;;;10.55;;
53959;SDS011;39866;48.638;-2.020;2023-02-28T13:56:03;14.38;;;11.88;;
53959;SDS011;39866;48.638;-2.020;2023-02-28T14:09:34;21.55;;;12.55;;
53959;SDS011;39866;48.638;-2.020;2023-02-28T14:21:24;24.02;;;13.63;;
53959;SDS011;39866;48.638;-2.020;2023-02-28T14:26:53;17.08;;;13.60;;
53959;SDS011;39866;48.638;-2.020;2023-02-28T14:29:29;17.95;;;15.05;;
53959;SDS011;39866;48.638;-2.020;2023-02-28T14:37:43;16.73;;;12.38;;
53959;SDS011;39866;48.638;-2.020;2023-02-28T14:40:14;13.55;;;10.02;;
53959;SDS011;39866;48.638;-2.020;2023-02-28T14:42:46;16.83;;;10.10;;
53959;SDS011;39866;48.638;-2.020;2023-02-28T14:45:17;13.30;;;9.32;;
53959;SDS011;39866;48.638;-2.020;2023-02-28T14:47:44;13.80;;;9.63;;
53959;SDS011;39866;48.638;-2.020;2023-02-28T14:50:24;16.98;;;8.85;;
53959;SDS011;39866;48.638;-2.020;2023-02-28T14:52:53;11.60;;;8.07;;
53959;SDS011;39866;48.638;-2.020;2023-02-28T14:55:20;14.07;;;8.68;;
53959;SDS011;39866;48.638;-2.020;2023-02-28T14:57:51;11.15;;;7.80;;
53959;SDS011;39866;48.638;-2.020;2023-02-28T15:00:26;13.10;;;8.02;;
53959;SDS011;39866;48.638;-2.020;2023-02-28T15:02:52;10.55;;;6.97;;
53959;SDS011;39866;48.638;-2.020;2023-02-28T15:05:23;12.95;;;6.93;;
53959;SDS011;39866;48.638;-2.020;2023-02-28T15:08:12;14.43;;;7.00;;
53959;SDS011;39866;48.638;-2.020;2023-02-28T15:10:40;14.60;;;7.50;;
53959;SDS011;39866;48.638;-2.020;2023-02-28T15:13:11;15.27;;;7.55;;
53959;SDS011;39866;48.638;-2.020;2023-02-28T15:15:41;16.48;;;7.65;;
53959;SDS011;39866;48.638;-2.020;2023-02-28T15:18:13;13.45;;;7.40;;
53959;SDS011;39866;48.638;-2.020;2023-02-28T15:20:55;13.85;;;8.07;;
53959;SDS011;39866;48.638;-2.020;2023-02-28T15:23:25;13.30;;;8.20;;
53959;SDS011;39866;48.638;-2.020;2023-02-28T15:25:50;12.52;;;7.63;;
53959;SDS011;39866;48.638;-2.020;2023-02-28T15:28:19;12.35;;;7.82;;
53959;SDS011;39866;48.638;-2.020;2023-02-28T15:30:54;11.05;;;8.35;;
53959;SDS011;39866;48.638;-2.020;2023-02-28T15:33:23;14.73;;;9.38;;
53959;SDS011;39866;48.638;-2.020;2023-02-28T15:35:51;14.65;;;9.82;;
53959;SDS011;39866;48.638;-2.020;2023-02-28T15:40:50;13.27;;;10.77;;
53959;SDS011;39866;48.638;-2.020;2023-02-28T15:43:26;12.88;;;11.52;;
53959;SDS011;39866;48.638;-2.020;2023-02-28T15:48:30;15.90;;;11.35;;
53959;SDS011;39866;48.638;-2.020;2023-02-28T15:53:33;16.37;;;12.33;;
53959;SDS011;39866;48.638;-2.020;2023-02-28T15:56:05;15.70;;;12.07;;
53959;SDS011;39866;48.638;-2.020;2023-02-28T15:58:41;18.42;;;12.98;;
53959;SDS011;39866;48.638;-2.020;2023-02-28T16:01:08;18.80;;;16.30;;
53959;SDS011;39866;48.638;-2.020;2023-02-28T16:03:47;15.13;;;12.55;;
53959;SDS011;39866;48.638;-2.020;2023-02-28T16:06:21;15.68;;;12.00;;
53959;SDS011;39866;48.638;-2.020;2023-02-28T16:08:54;14.57;;;11.13;;
53959;SDS011;39866;48.638;-2.020;2023-02-28T16:11:20;14.25;;;10.80;;
53959;SDS011;39866;48.638;-2.020;2023-02-28T16:13:46;12.60;;;9.20;;
53959;SDS011;39866;48.638;-2.020;2023-02-28T16:16:18;15.90;;;10.32;;
53959;SDS011;39866;48.638;-2.020;2023-02-28T16:18:49;15.80;;;9.77;;
53959;SDS011;39866;48.638;-2.020;2023-02-28T16:21:15;12.10;;;8.25;;
53959;SDS011;39866;48.638;-2.020;2023-02-28T16:23:41;12.85;;;9.20;;
53959;SDS011;39866;48.638;-2.020;2023-02-28T16:26:06;12.10;;;7.88;;
53959;SDS011;39866;48.638;-2.020;2023-02-28T16:28:34;10.00;;;6.38;;
53959;SDS011;39866;48.638;-2.020;2023-02-28T16:31:02;12.18;;;5.82;;
53959;SDS011;39866;48.638;-2.020;2023-02-28T16:33:30;12.77;;;6.13;;
53959;SDS011;39866;48.638;-2.020;2023-02-28T16:35:56;9.93;;;4.60;;
53959;SDS011;39866;48.638;-2.020;2023-02-28T16:38:22;11.05;;;4.97;;
53959;SDS011;39866;48.638;-2.020;2023-02-28T16:40:49;9.02;;;4.43;;
53959;SDS011;39866;48.638;-2.020;2023-02-28T16:43:17;10.63;;;5.53;;
53959;SDS011;39866;48.638;-2.020;2023-02-28T16:45:46;8.93;;;4.47;;
53959;SDS011;39866;48.638;-2.020;2023-02-28T16:48:12;10.73;;;4.88;;
53959;SDS011;39866;48.638;-2.020;2023-02-28T16:50:39;11.25;;;4.90;;
53959;SDS011;39866;48.638;-2.020;2023-02-28T16:53:05;12.27;;;4.50;;
53959;SDS011;39866;48.638;-2.020;2023-02-28T16:55:30;10.75;;;4.63;;
53959;SDS011;39866;48.638;-2.020;2023-02-28T16:57:57;13.60;;;5.13;;
53959;SDS011;39866;48.638;-2.020;2023-02-28T17:00:26;6.43;;;4.70;;
53959;SDS011;39866;48.638;-2.020;2023-02-28T17:02:53;11.55;;;5.05;;
53959;SDS011;39866;48.638;-2.020;2023-02-28T17:05:18;10.75;;;4.95;;
53959;SDS011;39866;48.638;-2.020;2023-02-28T17:07:45;12.38;;;5.50;;
53959;SDS011;39866;48.638;-2.020;2023-02-28T17:10:15;12.90;;;5.60;;
53959;SDS011;39866;48.638;-2.020;2023-02-28T17:12:45;11.10;;;5.45;;
53959;SDS011;39866;48.638;-2.020;2023-02-28T17:15:12;12.32;;;5.65;;
53959;SDS011;39866;48.638;-2.020;2023-02-28T17:17:39;10.13;;;6.32;;
53959;SDS011;39866;48.638;-2.020;2023-02-28T17:20:05;15.02;;;6.38;;
53959;SDS011;39866;48.638;-2.020;2023-02-28T17:22:31;13.40;;;5.70;;